createdAt,value
2022-10-02T00:01:31.084Z,101006.41
2022-10-02T00:03:38.522Z,100996.72
2022-10-02T00:05:45.715Z,100992.34
2022-10-02T00:07:54.152Z,101000.44
2022-10-02T00:10:01.951Z,101000.44
2022-10-02T00:12:08.776Z,101001.41
2022-10-02T00:14:16.117Z,101017.25
2022-10-02T00:16:28.921Z,101011.94
2022-10-02T00:18:35.678Z,101006.34
2022-10-02T00:20:46.876Z,101008.03
2022-10-02T00:22:55.499Z,101001.09
2022-10-02T00:25:05.857Z,101009.19
2022-10-02T00:27:28.522Z,101009.03
2022-10-02T00:29:45.314Z,101008.31
2022-10-02T00:31:57.775Z,100996.94
2022-10-02T00:34:19.785Z,101013.53
2022-10-02T00:36:37.222Z,101006.59
2022-10-02T00:38:51.980Z,101017.13
2022-10-02T00:41:17.786Z,101017.06
2022-10-02T00:43:33.582Z,101020.75
2022-10-02T00:45:51.079Z,101029.28
2022-10-02T00:48:04.305Z,101026.66
2022-10-02T00:50:27.755Z,101034.56
2022-10-02T00:52:45.587Z,101038.16
2022-10-02T00:55:16.464Z,101039.66
2022-10-02T00:57:29.091Z,101035.41
2022-10-02T00:59:50.218Z,101034.63
2022-10-02T01:01:59.762Z,101024.09
2022-10-02T01:04:09.835Z,101031.72
2022-10-02T01:06:13.638Z,101031.03
2022-10-02T01:08:17.818Z,101028.47
2022-10-02T01:10:22.915Z,101025.06
2022-10-02T01:12:26.320Z,101030.34
2022-10-02T01:14:36.095Z,101040.94
2022-10-02T01:16:42.039Z,101037.38
2022-10-02T01:18:47.999Z,101038.28
2022-10-02T01:20:55.479Z,101040.16
2022-10-02T01:23:06.671Z,101040.16
2022-10-02T01:25:11.362Z,101027.13
2022-10-02T01:27:14.862Z,101037.81
2022-10-02T01:29:18.334Z,101037.88
2022-10-02T01:31:24.499Z,101042.22
2022-10-02T01:33:28.057Z,101043.22
2022-10-02T01:35:34.840Z,101040.75
2022-10-02T01:37:42.108Z,101040.72
2022-10-02T01:39:46.181Z,101042.53
2022-10-02T01:41:50.884Z,101040.81
2022-10-02T01:43:58.146Z,101043.19
2022-10-02T01:46:19.712Z,101038.66
2022-10-02T01:48:36.272Z,101047.22
2022-10-02T01:50:49.485Z,101050.06
2022-10-02T01:53:03.804Z,101049.31
2022-10-02T01:55:26.209Z,101049.44
2022-10-02T01:57:46.614Z,101051.00
2022-10-02T02:00:03.379Z,101048.16
2022-10-02T02:02:24.060Z,101043.97
2022-10-02T02:04:32.186Z,101048.44
2022-10-02T02:06:47.064Z,101049.28
2022-10-02T02:09:02.187Z,101042.28
2022-10-02T02:11:12.118Z,101046.53
2022-10-02T02:13:22.460Z,101062.16
2022-10-02T02:15:29.980Z,101050.75
2022-10-02T02:17:42.903Z,101048.31
2022-10-02T02:19:50.280Z,101043.97
2022-10-02T02:21:59.748Z,101045.75
2022-10-02T02:24:06.842Z,101034.47
2022-10-02T02:26:13.063Z,101041.41
2022-10-02T02:28:22.153Z,101047.66
2022-10-02T02:30:26.319Z,101008.09
2022-10-02T02:32:35.932Z,101036.34
2022-10-02T02:34:43.835Z,101030.19
2022-10-02T02:36:53.402Z,101021.16
2022-10-02T02:39:02.344Z,101035.47
2022-10-02T02:41:10.137Z,101028.53
2022-10-02T02:43:20.026Z,101017.03
2022-10-02T02:45:28.288Z,101033.69
2022-10-02T02:47:40.169Z,101032.94
2022-10-02T02:49:52.046Z,101028.44
2022-10-02T02:51:57.948Z,101039.91
2022-10-02T02:54:07.028Z,101045.16
2022-10-02T02:56:15.329Z,101053.94
2022-10-02T02:58:25.215Z,101056.59
2022-10-02T03:00:28.690Z,101045.28
2022-10-02T03:02:32.949Z,101053.19
2022-10-02T03:04:36.326Z,101055.81
2022-10-02T03:06:42.089Z,101049.69
2022-10-02T03:08:48.257Z,101048.88
2022-10-02T03:11:05.434Z,101038.41
2022-10-02T03:13:20.054Z,101046.97
2022-10-02T03:15:31.149Z,101034.78
2022-10-02T03:17:46.894Z,101040.22
2022-10-02T03:19:55.710Z,101032.31
2022-10-02T03:22:08.082Z,101023.53
2022-10-02T03:24:19.174Z,101034.16
2022-10-02T03:26:31.161Z,101028.06
2022-10-02T03:28:54.932Z,101034.19
2022-10-02T03:31:01.572Z,101034.09
2022-10-02T03:33:06.442Z,101030.56
2022-10-02T03:35:13.180Z,101031.47
2022-10-02T03:37:18.237Z,101036.66
2022-10-02T03:39:26.143Z,101032.25
2022-10-02T03:41:29.689Z,101035.78
2022-10-02T03:43:32.955Z,101025.22
2022-10-02T03:45:52.175Z,101025.16
2022-10-02T03:47:57.175Z,101025.97
2022-10-02T03:50:00.481Z,101037.34
2022-10-02T03:52:03.912Z,101038.25
2022-10-02T03:54:14.053Z,101037.34
2022-10-02T03:56:29.276Z,101039.09
2022-10-02T03:58:33.932Z,101040.91
2022-10-02T04:00:40.049Z,101038.97
2022-10-02T04:02:48.032Z,101014.34
2022-10-02T04:04:57.289Z,101038.28
2022-10-02T04:07:04.592Z,101037.50
2022-10-02T04:09:13.473Z,101029.53
2022-10-02T04:11:21.484Z,101040.19
2022-10-02T04:13:31.063Z,101050.00
2022-10-02T04:15:52.533Z,101054.44
2022-10-02T04:18:01.732Z,101026.16
2022-10-02T04:20:11.397Z,101048.94
2022-10-02T04:22:22.087Z,101049.84
2022-10-02T04:24:32.033Z,101041.84
2022-10-02T04:26:39.554Z,101045.16
2022-10-02T04:28:47.170Z,101056.59
2022-10-02T04:30:53.382Z,101047.78
2022-10-02T04:32:59.240Z,101055.81
2022-10-02T04:35:02.833Z,101056.69
2022-10-02T04:37:23.558Z,101057.59
2022-10-02T04:39:46.471Z,101067.31
2022-10-02T04:42:04.826Z,101055.03
2022-10-02T04:44:21.609Z,101045.06
2022-10-02T04:46:49.547Z,101059.03
2022-10-02T04:49:17.932Z,101064.47
2022-10-02T04:51:32.075Z,101059.13
2022-10-02T04:54:02.422Z,101048.53
2022-10-02T04:56:31.404Z,101054.66
2022-10-02T04:58:55.760Z,101055.41
2022-10-02T05:01:08.086Z,101054.66
2022-10-02T05:03:27.921Z,101067.72
2022-10-02T05:05:54.976Z,101062.25
2022-10-02T05:08:15.618Z,101063.16
2022-10-02T05:10:35.067Z,101072.03
2022-10-02T05:12:50.408Z,101049.94
2022-10-02T05:15:16.133Z,101063.94
2022-10-02T05:17:37.489Z,101054.38
2022-10-02T05:19:59.725Z,101062.22
2022-10-02T05:22:24.125Z,101067.41
2022-10-02T05:24:45.038Z,101067.56
2022-10-02T05:27:15.336Z,101072.81
2022-10-02T05:29:32.688Z,101077.34
2022-10-02T05:31:46.453Z,101076.38
2022-10-02T05:34:01.988Z,101079.00
2022-10-02T05:36:22.464Z,101081.94
2022-10-02T05:38:43.295Z,101088.91
2022-10-02T05:40:53.887Z,101078.38
2022-10-02T05:43:05.201Z,101077.63
2022-10-02T05:45:23.741Z,101085.47
2022-10-02T05:47:30.347Z,101084.53
2022-10-02T05:49:36.939Z,101084.34
2022-10-02T05:51:47.321Z,101079.25
2022-10-02T05:53:56.987Z,101077.69
2022-10-02T05:56:06.351Z,101077.75
2022-10-02T05:58:16.329Z,101083.69
2022-10-02T06:00:29.545Z,101090.69
2022-10-02T06:02:41.559Z,101075.81
2022-10-02T06:04:54.155Z,101085.34
2022-10-02T06:07:02.179Z,101089.88
2022-10-02T06:09:18.942Z,101097.63
2022-10-02T06:11:31.151Z,101102.72
2022-10-02T06:13:41.867Z,101104.50
2022-10-02T06:15:52.162Z,101106.56
2022-10-02T06:18:00.937Z,101110.06
2022-10-02T06:20:13.607Z,101119.84
2022-10-02T06:22:20.895Z,101124.94
2022-10-02T06:24:31.876Z,101125.81
2022-10-02T06:26:43.184Z,101129.50
2022-10-02T06:28:54.555Z,101135.59
2022-10-02T06:31:03.046Z,101117.16
2022-10-02T06:33:14.075Z,101132.91
2022-10-02T06:35:28.951Z,101140.78
2022-10-02T06:37:44.199Z,101140.78
2022-10-02T06:40:04.832Z,101139.00
2022-10-02T06:42:20.893Z,101150.63
2022-10-02T06:44:30.603Z,101142.91
2022-10-02T06:46:41.121Z,101155.97
2022-10-02T06:48:52.991Z,101141.06
2022-10-02T06:51:03.586Z,101151.66
2022-10-02T06:53:26.517Z,101145.41
2022-10-02T06:55:41.471Z,101150.66
2022-10-02T06:57:59.410Z,101151.41
2022-10-02T07:00:13.589Z,101156.78
2022-10-02T07:02:30.877Z,101156.66
2022-10-02T07:04:58.329Z,101158.34
2022-10-02T07:07:15.695Z,101157.47
2022-10-02T07:09:36.481Z,101167.25
2022-10-02T07:11:48.901Z,101165.47
2022-10-02T07:14:04.871Z,101175.28
2022-10-02T07:16:41.623Z,101174.66
2022-10-02T07:18:58.689Z,101175.41
2022-10-02T07:21:11.696Z,101155.69
2022-10-02T07:23:35.072Z,101170.66
2022-10-02T07:25:48.657Z,101174.28
2022-10-02T07:28:06.291Z,101185.84
2022-10-02T07:30:12.631Z,101189.47
2022-10-02T07:32:47.399Z,101192.25
2022-10-02T07:34:59.046Z,101183.22
2022-10-02T07:37:13.807Z,101180.59
2022-10-02T07:39:28.344Z,101187.50
2022-10-02T07:41:48.468Z,101182.78
2022-10-02T07:44:00.087Z,101186.41
2022-10-02T07:46:14.828Z,101188.91
2022-10-02T07:48:43.142Z,101195.94
2022-10-02T07:51:00.763Z,101203.03
2022-10-02T07:53:12.291Z,101202.19
2022-10-02T07:55:18.519Z,101200.63
2022-10-02T07:57:31.512Z,101195.50
2022-10-02T07:59:36.761Z,101205.91
2022-10-02T08:01:42.567Z,101202.97
2022-10-02T08:03:53.200Z,101202.31
2022-10-02T08:05:57.517Z,101187.47
2022-10-02T08:08:05.477Z,101185.66
2022-10-02T08:10:11.943Z,101204.03
2022-10-02T08:12:28.121Z,101204.66
2022-10-02T08:14:38.306Z,101202.09
2022-10-02T08:16:47.730Z,101208.56
2022-10-02T08:18:57.225Z,101206.91
2022-10-02T08:21:02.083Z,101210.31
2022-10-02T08:23:13.541Z,101215.56
2022-10-02T08:25:25.077Z,101197.03
2022-10-02T08:27:36.064Z,101226.94
2022-10-02T08:29:45.063Z,101220.03
2022-10-02T08:31:52.055Z,101216.66
2022-10-02T08:33:57.487Z,101222.66
2022-10-02T08:36:18.882Z,101235.72
2022-10-02T08:38:41.374Z,101241.56
2022-10-02T08:41:18.361Z,101231.19
2022-10-02T08:44:00.346Z,101228.44
2022-10-02T08:46:32.660Z,101237.28
2022-10-02T08:49:15.152Z,101222.78
2022-10-02T08:51:53.985Z,101230.75
2022-10-02T08:54:25.969Z,101231.88
2022-10-02T08:56:40.954Z,101232.53
2022-10-02T08:59:09.997Z,101232.69
2022-10-02T09:01:35.124Z,101203.88
2022-10-02T09:04:17.789Z,101238.44
2022-10-02T09:06:56.991Z,101235.97
2022-10-02T09:09:36.247Z,101240.16
2022-10-02T09:12:20.445Z,101246.09
2022-10-02T09:14:43.898Z,101240.75
2022-10-02T09:17:10.998Z,101246.00
2022-10-02T09:19:31.946Z,101245.91
2022-10-02T09:21:52.580Z,101245.00
2022-10-02T09:24:32.283Z,101243.09
2022-10-02T09:26:59.700Z,101253.66
2022-10-02T09:29:48.698Z,101255.59
2022-10-02T09:32:43.417Z,101257.28
2022-10-02T09:35:03.950Z,101258.91
2022-10-02T09:37:28.591Z,101255.63
2022-10-02T09:40:02.855Z,101260.97
2022-10-02T09:42:29.289Z,101249.56
2022-10-02T09:45:01.449Z,101250.53
2022-10-02T09:47:27.082Z,101255.84
2022-10-02T09:49:54.794Z,101249.78
2022-10-02T09:52:46.962Z,101255.88
2022-10-02T09:55:27.496Z,101257.41
2022-10-02T09:58:09.319Z,101248.53
2022-10-02T10:00:30.576Z,101244.38
2022-10-02T10:03:03.624Z,101250.69
2022-10-02T10:05:52.001Z,101250.63
2022-10-02T10:08:25.629Z,101249.84
2022-10-02T10:10:57.045Z,101251.78
2022-10-02T10:13:43.521Z,101259.00
2022-10-02T10:16:30.227Z,101260.06
2022-10-02T10:19:03.650Z,101273.13
2022-10-02T10:21:41.310Z,101272.81
2022-10-02T10:24:20.600Z,101279.25
2022-10-02T10:26:51.597Z,101278.50
2022-10-02T10:29:33.081Z,101274.25
2022-10-02T10:32:06.133Z,101280.44
2022-10-02T10:34:39.759Z,101279.59
2022-10-02T10:37:13.001Z,101287.00
2022-10-02T10:39:47.349Z,101279.38
2022-10-02T10:42:12.827Z,101285.72
2022-10-02T10:44:56.725Z,101299.78
2022-10-02T10:47:35.816Z,101282.19
2022-10-02T10:50:04.490Z,101287.44
2022-10-02T10:52:17.646Z,101291.78
2022-10-02T10:54:48.519Z,101297.13
2022-10-02T10:56:55.571Z,101296.94
2022-10-02T10:59:25.310Z,101312.91
2022-10-02T11:01:42.401Z,101303.88
2022-10-02T11:04:02.185Z,101310.19
2022-10-02T11:06:31.076Z,101313.84
2022-10-02T11:09:05.456Z,101317.53
2022-10-02T11:11:20.875Z,101322.00
2022-10-02T11:13:50.179Z,101315.94
2022-10-02T11:16:35.434Z,101319.41
2022-10-02T11:19:20.638Z,101323.63
2022-10-02T11:22:01.374Z,101325.47
2022-10-02T11:24:18.422Z,101330.75
2022-10-02T11:26:44.712Z,101331.47
2022-10-02T11:29:00.971Z,101332.94
2022-10-02T11:31:24.305Z,101338.25
2022-10-02T11:33:57.561Z,101340.28
2022-10-02T11:36:41.665Z,101335.28
2022-10-02T11:39:06.080Z,101322.31
2022-10-02T11:41:22.276Z,101329.72
2022-10-02T11:43:45.521Z,101333.50
2022-10-02T11:46:21.567Z,101332.50
2022-10-02T11:48:47.705Z,101333.38
2022-10-02T11:51:17.665Z,101330.59
2022-10-02T11:53:35.182Z,101315.38
2022-10-02T11:55:58.042Z,101329.44
2022-10-02T11:58:14.418Z,101335.63
2022-10-02T12:00:56.862Z,101326.03
2022-10-02T12:03:04.981Z,101331.84
2022-10-02T12:05:22.326Z,101333.94
2022-10-02T12:07:40.100Z,101332.94
2022-10-02T12:09:58.989Z,101334.69
2022-10-02T12:12:17.020Z,101328.47
2022-10-02T12:14:31.506Z,101318.56
2022-10-02T12:16:53.492Z,101335.28
2022-10-02T12:19:12.254Z,101337.00
2022-10-02T12:21:48.464Z,101336.88
2022-10-02T12:24:14.413Z,101336.78
2022-10-02T12:26:58.859Z,101347.88
2022-10-02T12:29:11.229Z,101344.28
2022-10-02T12:31:25.011Z,101339.09
2022-10-02T12:33:41.226Z,101330.38
2022-10-02T12:36:09.976Z,101341.91
2022-10-02T12:38:28.274Z,101335.84
2022-10-02T12:40:41.772Z,101336.59
2022-10-02T12:43:07.723Z,101338.34
2022-10-02T12:45:47.365Z,101340.78
2022-10-02T12:48:21.439Z,101330.91
2022-10-02T12:50:41.919Z,101333.63
2022-10-02T12:53:09.619Z,101334.50
2022-10-02T12:55:58.212Z,101328.50
2022-10-02T12:58:11.740Z,101327.63
2022-10-02T13:00:18.656Z,101326.91
2022-10-02T13:03:05.828Z,101322.66
2022-10-02T13:05:32.021Z,101326.78
2022-10-02T13:08:15.967Z,101319.47
2022-10-02T13:10:22.186Z,101315.44
2022-10-02T13:12:46.037Z,101311.25
2022-10-02T13:15:33.708Z,101306.84
2022-10-02T13:17:46.234Z,101327.97
2022-10-02T13:20:02.121Z,101335.78
2022-10-02T13:22:13.731Z,101333.09
2022-10-02T13:24:37.261Z,101331.31
2022-10-02T13:26:49.854Z,101343.56
2022-10-02T13:29:07.991Z,101337.44
2022-10-02T13:31:20.670Z,101320.69
2022-10-02T13:33:43.046Z,101326.81
2022-10-02T13:35:58.634Z,101329.59
2022-10-02T13:38:14.249Z,101319.03
2022-10-02T13:40:24.891Z,101326.03
2022-10-02T13:42:41.086Z,101327.72
2022-10-02T13:44:53.049Z,101344.28
2022-10-02T13:47:22.495Z,101341.63
2022-10-02T13:49:41.736Z,101345.03
2022-10-02T13:51:53.647Z,101340.56
2022-10-02T13:54:36.757Z,101337.81
2022-10-02T13:56:51.108Z,101336.03
2022-10-02T13:59:11.232Z,101343.91
2022-10-02T14:01:25.233Z,101345.50
2022-10-02T14:03:42.476Z,101334.06
2022-10-02T14:05:57.678Z,101349.94
2022-10-02T14:08:13.774Z,101355.28
2022-10-02T14:10:29.327Z,101351.72
2022-10-02T14:12:45.084Z,101357.88
2022-10-02T14:15:04.316Z,101358.72
2022-10-02T14:17:22.412Z,101353.47
2022-10-02T14:19:44.181Z,101356.97
2022-10-02T14:21:57.620Z,101357.75
2022-10-02T14:24:48.521Z,101365.63
2022-10-02T14:27:04.117Z,101367.38
2022-10-02T14:29:17.271Z,101370.03
2022-10-02T14:31:41.490Z,101366.56
2022-10-02T14:34:08.884Z,101377.09
2022-10-02T14:36:20.044Z,101381.53
2022-10-02T14:38:36.400Z,101373.44
2022-10-02T14:40:50.698Z,101378.63
2022-10-02T14:43:14.628Z,101388.13
2022-10-02T14:45:38.424Z,101383.81
2022-10-02T14:47:57.358Z,101377.69
2022-10-02T14:50:18.111Z,101377.66
2022-10-02T14:52:41.793Z,101376.78
2022-10-02T14:55:31.147Z,101377.97
2022-10-02T14:57:46.201Z,101388.47
2022-10-02T15:00:20.779Z,101380.34
2022-10-02T15:02:40.657Z,101388.13
2022-10-02T15:04:53.898Z,101389.88
2022-10-02T15:07:08.823Z,101387.38
2022-10-02T15:09:17.113Z,101391.25
2022-10-02T15:11:27.155Z,101385.97
2022-10-02T15:13:38.548Z,101393.91
2022-10-02T15:15:47.808Z,101402.59
2022-10-02T15:18:00.382Z,101393.56
2022-10-02T15:20:20.606Z,101392.94
2022-10-02T15:22:30.020Z,101400.09
2022-10-02T15:24:35.167Z,101390.34
2022-10-02T15:26:55.348Z,101392.81
2022-10-02T15:29:12.518Z,101391.88
2022-10-02T15:31:23.683Z,101395.31
2022-10-02T15:33:35.088Z,101403.66
2022-10-02T15:35:55.143Z,101397.59
2022-10-02T15:38:42.504Z,101408.19
2022-10-02T15:40:56.254Z,101411.06
2022-10-02T15:43:22.069Z,101410.16
2022-10-02T15:45:40.375Z,101411.75
2022-10-02T15:48:12.530Z,101414.44
2022-10-02T15:50:27.957Z,101418.69
2022-10-02T15:52:41.568Z,101425.50
2022-10-02T15:54:57.472Z,101419.38
2022-10-02T15:57:25.947Z,101427.91
2022-10-02T15:59:45.899Z,101429.59
2022-10-02T16:02:00.580Z,101420.66
2022-10-02T16:04:14.671Z,101425.91
2022-10-02T16:06:32.791Z,101435.69
2022-10-02T16:08:58.919Z,101432.19
2022-10-02T16:11:38.706Z,101435.53
2022-10-02T16:13:52.385Z,101431.13
2022-10-02T16:16:06.256Z,101430.13
2022-10-02T16:18:24.976Z,101427.50
2022-10-02T16:20:38.362Z,101429.88
2022-10-02T16:22:57.282Z,101428.09
2022-10-02T16:25:15.420Z,101441.19
2022-10-02T16:27:46.667Z,101450.50
2022-10-02T16:30:05.360Z,101443.50
2022-10-02T16:32:21.818Z,101451.41
2022-10-02T16:34:44.270Z,101444.25
2022-10-02T16:36:53.176Z,101447.78
2022-10-02T16:39:05.652Z,101458.28
2022-10-02T16:41:21.006Z,101460.72
2022-10-02T16:43:49.075Z,101463.28
2022-10-02T16:46:11.472Z,101466.94
2022-10-02T16:48:22.474Z,101474.88
2022-10-02T16:50:33.048Z,101480.09
2022-10-02T16:52:46.519Z,101483.53
2022-10-02T16:54:56.176Z,101466.50
2022-10-02T16:57:05.819Z,101487.84
2022-10-02T16:59:14.751Z,101493.97
2022-10-02T17:01:27.215Z,101496.59
2022-10-02T17:03:37.088Z,101500.88
2022-10-02T17:05:49.616Z,101510.56
2022-10-02T17:07:59.990Z,101521.03
2022-10-02T17:10:19.158Z,101514.78
2022-10-02T17:12:28.719Z,101524.00
2022-10-02T17:14:44.884Z,101533.03
2022-10-02T17:16:56.399Z,101536.56
2022-10-02T17:19:04.872Z,101494.03
2022-10-02T17:21:15.483Z,101545.41
2022-10-02T17:23:26.049Z,101556.72
2022-10-02T17:25:38.799Z,101561.09
2022-10-02T17:27:51.046Z,101561.09
2022-10-02T17:30:03.691Z,101567.03
2022-10-02T17:32:10.122Z,101542.22
2022-10-02T17:34:21.242Z,101576.75
2022-10-02T17:36:35.425Z,101581.97
2022-10-02T17:38:53.627Z,101581.97
2022-10-02T17:41:07.119Z,101575.63
2022-10-02T17:43:21.269Z,101594.16
2022-10-02T17:45:36.975Z,101596.63
2022-10-02T17:48:10.945Z,101609.72
2022-10-02T17:50:28.100Z,101606.13
2022-10-02T17:52:57.744Z,101614.75
2022-10-02T17:55:34.582Z,101619.03
2022-10-02T17:57:54.175Z,101626.16
2022-10-02T18:00:14.796Z,101622.63
2022-10-02T18:02:33.584Z,101623.47
2022-10-02T18:04:49.472Z,101633.91
2022-10-02T18:07:09.405Z,101620.56
2022-10-02T18:09:29.672Z,101632.06
2022-10-02T18:11:55.881Z,101637.25
2022-10-02T18:14:11.915Z,101646.94
2022-10-02T18:16:38.513Z,101590.06
2022-10-02T18:18:57.312Z,101649.47
2022-10-02T18:21:24.210Z,101657.13
2022-10-02T18:23:49.384Z,101653.53
2022-10-02T18:26:06.377Z,101663.91
2022-10-02T18:28:32.737Z,101664.63
2022-10-02T18:30:46.163Z,101659.38
2022-10-02T18:33:08.319Z,101669.16
2022-10-02T18:35:32.140Z,101672.59
2022-10-02T18:38:02.835Z,101675.97
2022-10-02T18:40:22.127Z,101672.25
2022-10-02T18:42:43.978Z,101681.03
2022-10-02T18:45:03.984Z,101683.50
2022-10-02T18:47:18.837Z,101694.16
2022-10-02T18:49:47.795Z,101691.38
2022-10-02T18:52:09.756Z,101694.78
2022-10-02T18:54:23.341Z,101709.78
2022-10-02T18:56:51.313Z,101705.31
2022-10-02T18:59:13.703Z,101700.69
2022-10-02T19:01:31.700Z,101711.97
2022-10-02T19:03:49.720Z,101714.63
2022-10-02T19:05:59.713Z,101720.81
2022-10-02T19:08:18.711Z,101717.28
2022-10-02T19:10:26.335Z,101716.38
2022-10-02T19:12:32.191Z,101726.00
2022-10-02T19:14:41.780Z,101726.97
2022-10-02T19:17:04.320Z,101726.88
2022-10-02T19:19:12.007Z,101730.44
2022-10-02T19:21:19.340Z,101736.59
2022-10-02T19:23:30.327Z,101734.03
2022-10-02T19:25:34.684Z,101735.47
2022-10-02T19:27:41.360Z,101693.66
2022-10-02T19:29:49.697Z,101717.69
2022-10-02T19:31:54.591Z,101749.47
2022-10-02T19:34:03.112Z,101746.88
2022-10-02T19:36:07.470Z,101752.09
2022-10-02T19:38:14.613Z,101759.94
2022-10-02T19:40:21.877Z,101761.63
2022-10-02T19:42:28.533Z,101765.19
2022-10-02T19:44:36.527Z,101767.06
2022-10-02T19:46:43.933Z,101770.44
2022-10-02T19:48:47.990Z,101771.28
2022-10-02T19:50:57.416Z,101748.94
2022-10-02T19:53:06.709Z,101779.16
2022-10-02T19:55:22.508Z,101779.88
2022-10-02T19:57:32.984Z,101786.94
2022-10-02T19:59:42.981Z,101789.88
2022-10-02T20:01:51.690Z,101772.75
2022-10-02T20:03:57.530Z,101802.03
2022-10-02T20:06:04.270Z,101798.25
2022-10-02T20:08:15.836Z,101800.06
2022-10-02T20:10:23.318Z,101789.38
2022-10-02T20:12:32.177Z,101811.31
2022-10-02T20:14:42.907Z,101811.31
2022-10-02T20:17:04.119Z,101814.66
2022-10-02T20:19:10.911Z,101748.53
2022-10-02T20:21:19.801Z,101819.72
2022-10-02T20:23:28.256Z,101811.84
2022-10-02T20:25:36.959Z,101818.03
2022-10-02T20:27:47.448Z,101828.50
2022-10-02T20:29:59.481Z,101828.34
2022-10-02T20:32:09.485Z,101824.09
2022-10-02T20:34:24.569Z,101831.03
2022-10-02T20:36:38.447Z,101836.13
2022-10-02T20:38:48.391Z,101840.72
2022-10-02T20:40:55.285Z,101843.41
2022-10-02T20:43:03.987Z,101831.78
2022-10-02T20:45:12.897Z,101851.28
2022-10-02T20:47:40.719Z,101854.47
2022-10-02T20:50:23.896Z,101857.13
2022-10-02T20:53:02.756Z,101870.06
2022-10-02T20:55:15.963Z,101871.50
2022-10-02T20:58:00.771Z,101874.13
2022-10-02T21:00:15.562Z,101877.53
2022-10-02T21:02:35.167Z,101876.75
2022-10-02T21:05:12.073Z,101880.22
2022-10-02T21:07:43.599Z,101884.50
2022-10-02T21:10:12.841Z,101881.19
2022-10-02T21:12:54.454Z,101886.34
2022-10-02T21:15:25.358Z,101885.31
2022-10-02T21:17:56.986Z,101900.09
2022-10-02T21:20:50.442Z,101903.56
2022-10-02T21:23:44.687Z,101907.66
2022-10-02T21:26:26.863Z,101906.88
2022-10-02T21:29:33.131Z,101913.88
2022-10-02T21:32:00.946Z,101912.03
2022-10-02T21:34:19.758Z,101921.34
2022-10-02T21:36:33.669Z,101908.25
2022-10-02T21:39:11.852Z,101906.63
2022-10-02T21:41:58.093Z,101917.00
2022-10-02T21:44:29.389Z,101915.19
2022-10-02T21:47:13.885Z,101919.56
2022-10-02T21:49:47.044Z,101929.13
2022-10-02T21:52:26.579Z,101938.69
2022-10-02T21:55:08.246Z,101943.94
2022-10-02T21:57:48.843Z,101946.50
2022-10-02T22:00:12.893Z,101944.56
2022-10-02T22:02:40.679Z,101947.91
2022-10-02T22:05:21.022Z,101963.53
2022-10-02T22:07:32.851Z,101965.03
2022-10-02T22:09:47.087Z,101963.25
2022-10-02T22:12:04.425Z,101970.97
2022-10-02T22:14:12.025Z,101975.31
2022-10-02T22:16:29.805Z,101970.19
2022-10-02T22:18:45.618Z,101975.22
2022-10-02T22:21:05.770Z,101973.38
2022-10-02T22:23:24.858Z,101977.59
2022-10-02T22:25:40.438Z,101980.41
2022-10-02T22:28:03.981Z,101982.84
2022-10-02T22:30:20.932Z,101979.22
2022-10-02T22:33:12.303Z,101983.47
2022-10-02T22:35:25.849Z,101989.41
2022-10-02T22:37:50.222Z,101990.28
2022-10-02T22:40:01.928Z,101982.94
2022-10-02T22:42:13.275Z,101987.25
2022-10-02T22:44:26.790Z,101991.44
2022-10-02T22:46:41.393Z,101991.44
2022-10-02T22:48:49.248Z,101992.94
2022-10-02T22:50:56.739Z,101997.09
2022-10-02T22:53:09.893Z,101996.03
2022-10-02T22:55:19.658Z,101996.16
2022-10-02T22:57:30.384Z,101996.16
2022-10-02T22:59:44.148Z,101998.78
2022-10-02T23:01:52.843Z,102006.50
2022-10-02T23:03:59.865Z,102002.09
2022-10-02T23:06:07.253Z,102004.91
2022-10-02T23:08:24.318Z,102001.19
2022-10-02T23:10:33.345Z,102013.41
2022-10-02T23:12:41.716Z,101994.84
2022-10-02T23:14:59.140Z,102009.84
2022-10-02T23:17:11.705Z,102005.19
2022-10-02T23:19:23.458Z,101969.34
2022-10-02T23:21:37.806Z,102002.56
2022-10-02T23:23:51.242Z,101999.91
2022-10-02T23:26:00.187Z,102009.25
2022-10-02T23:28:11.067Z,102008.13
2022-10-02T23:30:20.355Z,102007.06
2022-10-02T23:32:28.468Z,102008.53
2022-10-02T23:34:38.196Z,101996.94
2022-10-02T23:36:50.026Z,101999.75
2022-10-02T23:39:00.035Z,101999.47
2022-10-02T23:41:26.627Z,101999.34
2022-10-02T23:43:33.646Z,102008.19
2022-10-02T23:45:43.580Z,102008.91
2022-10-02T23:47:58.975Z,102021.78
2022-10-02T23:50:03.287Z,102015.63
2022-10-02T23:52:22.787Z,102020.00
2022-10-02T23:54:45.236Z,102027.84
2022-10-02T23:57:10.713Z,102015.97
2022-10-02T23:59:33.558Z,102007.31
